sensor_id;sensor_type;location;lat;lon;timestamp;temperature;humidity
1155;DHT22;566;48.414;9.118;2023-02-26T00:01:41;-2.20;98.00
1155;DHT22;566;48.414;9.118;2023-02-26T00:04:09;-2.10;98.00
1155;DHT22;566;48.414;9.118;2023-02-26T00:06:37;-2.10;98.00
1155;DHT22;566;48.414;9.118;2023-02-26T00:09:06;-2.10;98.00
1155;DHT22;566;48.414;9.118;2023-02-26T00:11:33;-2.10;98.00
1155;DHT22;566;48.414;9.118;2023-02-26T00:13:58;-2.00;98.00
1155;DHT22;566;48.414;9.118;2023-02-26T00:16:32;-2.10;98.00
1155;DHT22;566;48.414;9.118;2023-02-26T00:19:01;-2.00;98.00
1155;DHT22;566;48.414;9.118;2023-02-26T00:21:28;-2.10;98.00
1155;DHT22;566;48.414;9.118;2023-02-26T00:23:54;-2.10;98.00
1155;DHT22;566;48.414;9.118;2023-02-26T00:26:21;-2.30;98.00
1155;DHT22;566;48.414;9.118;2023-02-26T00:28:48;-2.40;98.00
1155;DHT22;566;48.414;9.118;2023-02-26T00:31:15;-2.40;98.00
1155;DHT22;566;48.414;9.118;2023-02-26T00:33:41;-2.40;98.00
1155;DHT22;566;48.414;9.118;2023-02-26T00:36:19;-2.40;98.00
1155;DHT22;566;48.414;9.118;2023-02-26T00:38:57;-2.50;97.90
1155;DHT22;566;48.414;9.118;2023-02-26T00:41:27;-2.40;98.00
1155;DHT22;566;48.414;9.118;2023-02-26T00:43:53;-2.40;97.70
1155;DHT22;566;48.414;9.118;2023-02-26T00:46:31;-2.30;98.00
1155;DHT22;566;48.414;9.118;2023-02-26T00:51:57;-2.40;98.00
1155;DHT22;566;48.414;9.118;2023-02-26T00:54:27;-2.30;98.00
1155;DHT22;566;48.414;9.118;2023-02-26T00:56:55;-2.30;98.00
1155;DHT22;566;48.414;9.118;2023-02-26T00:59:21;-2.30;98.00
1155;DHT22;566;48.414;9.118;2023-02-26T01:01:47;-2.30;98.00
1155;DHT22;566;48.414;9.118;2023-02-26T01:04:15;-2.30;98.00
1155;DHT22;566;48.414;9.118;2023-02-26T01:06:44;-2.30;98.00
1155;DHT22;566;48.414;9.118;2023-02-26T01:11:41;-2.30;98.00
1155;DHT22;566;48.414;9.118;2023-02-26T01:14:06;-2.20;98.00
1155;DHT22;566;48.414;9.118;2023-02-26T01:19:53;-2.10;98.00
1155;DHT22;566;48.414;9.118;2023-02-26T01:22:24;-2.10;98.00
1155;DHT22;566;48.414;9.118;2023-02-26T01:25:01;-2.10;98.00
1155;DHT22;566;48.414;9.118;2023-02-26T01:27:27;-2.10;98.00
1155;DHT22;566;48.414;9.118;2023-02-26T01:29:53;-2.10;98.00
1155;DHT22;566;48.414;9.118;2023-02-26T01:41:05;-2.20;98.00
1155;DHT22;566;48.414;9.118;2023-02-26T01:49:07;-2.20;98.00
1155;DHT22;566;48.414;9.118;2023-02-26T01:54:09;-2.10;98.00
1155;DHT22;566;48.414;9.118;2023-02-26T01:56:37;-2.10;98.00
1155;DHT22;566;48.414;9.118;2023-02-26T01:59:04;-2.20;98.00
1155;DHT22;566;48.414;9.118;2023-02-26T02:01:38;-2.20;97.30
1155;DHT22;566;48.414;9.118;2023-02-26T02:04:07;-2.30;97.40
1155;DHT22;566;48.414;9.118;2023-02-26T02:06:34;-2.30;98.00
1155;DHT22;566;48.414;9.118;2023-02-26T02:09:05;-2.40;98.00
1155;DHT22;566;48.414;9.118;2023-02-26T02:11:33;-2.40;97.70
1155;DHT22;566;48.414;9.118;2023-02-26T02:15:02;-2.40;98.00
1155;DHT22;566;48.414;9.118;2023-02-26T02:24:57;-2.60;98.00
1155;DHT22;566;48.414;9.118;2023-02-26T02:33:04;-2.50;98.00
1155;DHT22;566;48.414;9.118;2023-02-26T02:35:31;-2.50;98.00
1155;DHT22;566;48.414;9.118;2023-02-26T02:38:18;-2.50;98.00
1155;DHT22;566;48.414;9.118;2023-02-26T02:40:49;-2.50;98.00
1155;DHT22;566;48.414;9.118;2023-02-26T02:43:20;-2.50;98.00
1155;DHT22;566;48.414;9.118;2023-02-26T02:46:05;-2.50;98.00
1155;DHT22;566;48.414;9.118;2023-02-26T02:48:35;-2.50;98.00
1155;DHT22;566;48.414;9.118;2023-02-26T02:51:22;-2.40;98.00
1155;DHT22;566;48.414;9.118;2023-02-26T02:53:56;-2.40;98.00
1155;DHT22;566;48.414;9.118;2023-02-26T02:56:40;-2.40;98.00
1155;DHT22;566;48.414;9.118;2023-02-26T03:02:06;-2.40;98.00
1155;DHT22;566;48.414;9.118;2023-02-26T03:04:34;-2.40;98.00
1155;DHT22;566;48.414;9.118;2023-02-26T03:07:00;-2.50;98.00
1155;DHT22;566;48.414;9.118;2023-02-26T03:09:26;-2.40;98.00
1155;DHT22;566;48.414;9.118;2023-02-26T03:11:51;-2.40;98.00
1155;DHT22;566;48.414;9.118;2023-02-26T03:14:17;-2.60;98.00
1155;DHT22;566;48.414;9.118;2023-02-26T03:24:58;-2.50;98.00
1155;DHT22;566;48.414;9.118;2023-02-26T03:27:48;-2.60;98.00
1155;DHT22;566;48.414;9.118;2023-02-26T03:30:25;-2.70;98.00
1155;DHT22;566;48.414;9.118;2023-02-26T03:33:23;-2.70;98.00
1155;DHT22;566;48.414;9.118;2023-02-26T03:36:07;-2.70;98.00
1155;DHT22;566;48.414;9.118;2023-02-26T03:38:47;-2.70;98.00
1155;DHT22;566;48.414;9.118;2023-02-26T03:41:19;-2.70;98.00
1155;DHT22;566;48.414;9.118;2023-02-26T03:43:52;-2.70;98.00
1155;DHT22;566;48.414;9.118;2023-02-26T03:46:44;-2.80;98.00
1155;DHT22;566;48.414;9.118;2023-02-26T03:49:19;-2.80;98.00
1155;DHT22;566;48.414;9.118;2023-02-26T03:51:45;-2.80;98.00
1155;DHT22;566;48.414;9.118;2023-02-26T03:54:25;-2.90;98.00
1155;DHT22;566;48.414;9.118;2023-02-26T03:56:52;-3.00;98.00
1155;DHT22;566;48.414;9.118;2023-02-26T03:59:18;-3.00;98.00
1155;DHT22;566;48.414;9.118;2023-02-26T04:01:56;-3.00;98.00
1155;DHT22;566;48.414;9.118;2023-02-26T04:04:27;-3.00;98.00
1155;DHT22;566;48.414;9.118;2023-02-26T04:06:56;-3.10;98.00
1155;DHT22;566;48.414;9.118;2023-02-26T04:09:22;-3.20;98.00
1155;DHT22;566;48.414;9.118;2023-02-26T04:11:49;-3.30;98.00
1155;DHT22;566;48.414;9.118;2023-02-26T04:14:15;-3.50;98.00
1155;DHT22;566;48.414;9.118;2023-02-26T04:16:42;-3.60;98.00
1155;DHT22;566;48.414;9.118;2023-02-26T04:19:09;-3.70;97.80
1155;DHT22;566;48.414;9.118;2023-02-26T04:21:34;-3.80;96.70
1155;DHT22;566;48.414;9.118;2023-02-26T04:24:03;-3.90;96.90
1155;DHT22;566;48.414;9.118;2023-02-26T04:26:29;-4.00;96.50
1155;DHT22;566;48.414;9.118;2023-02-26T04:28:54;-4.10;96.50
1155;DHT22;566;48.414;9.118;2023-02-26T04:31:20;-4.20;95.40
1155;DHT22;566;48.414;9.118;2023-02-26T04:33:45;-4.20;94.70
1155;DHT22;566;48.414;9.118;2023-02-26T04:36:11;-4.20;94.20
1155;DHT22;566;48.414;9.118;2023-02-26T04:38:39;-4.20;94.20
1155;DHT22;566;48.414;9.118;2023-02-26T04:41:05;-4.20;93.20
1155;DHT22;566;48.414;9.118;2023-02-26T04:43:31;-4.20;93.20
1155;DHT22;566;48.414;9.118;2023-02-26T04:45:57;-4.20;93.50
1155;DHT22;566;48.414;9.118;2023-02-26T04:48:23;-4.30;93.80
1155;DHT22;566;48.414;9.118;2023-02-26T04:50:51;-4.40;93.40
1155;DHT22;566;48.414;9.118;2023-02-26T04:53:17;-4.30;94.40
1155;DHT22;566;48.414;9.118;2023-02-26T04:55:42;-4.40;94.70
1155;DHT22;566;48.414;9.118;2023-02-26T04:58:09;-4.50;94.70
1155;DHT22;566;48.414;9.118;2023-02-26T05:00:35;-4.50;95.10
1155;DHT22;566;48.414;9.118;2023-02-26T05:03:06;-4.40;95.60
1155;DHT22;566;48.414;9.118;2023-02-26T05:05:34;-4.30;96.60
1155;DHT22;566;48.414;9.118;2023-02-26T05:08:00;-4.30;97.50
1155;DHT22;566;48.414;9.118;2023-02-26T05:10:25;-4.40;96.80
1155;DHT22;566;48.414;9.118;2023-02-26T05:12:51;-4.40;97.20
1155;DHT22;566;48.414;9.118;2023-02-26T05:15:17;-4.30;97.50
1155;DHT22;566;48.414;9.118;2023-02-26T05:17:43;-4.40;97.50
1155;DHT22;566;48.414;9.118;2023-02-26T05:20:09;-4.40;96.40
1155;DHT22;566;48.414;9.118;2023-02-26T05:22:36;-4.50;96.00
1155;DHT22;566;48.414;9.118;2023-02-26T05:25:02;-4.50;95.10
1155;DHT22;566;48.414;9.118;2023-02-26T05:27:29;-4.50;95.10
1155;DHT22;566;48.414;9.118;2023-02-26T05:29:55;-4.50;94.60
1155;DHT22;566;48.414;9.118;2023-02-26T05:32:20;-4.50;93.30
1155;DHT22;566;48.414;9.118;2023-02-26T05:34:46;-4.40;93.40
1155;DHT22;566;48.414;9.118;2023-02-26T05:37:11;-4.40;95.20
1155;DHT22;566;48.414;9.118;2023-02-26T05:39:37;-4.40;94.50
1155;DHT22;566;48.414;9.118;2023-02-26T05:42:03;-4.40;93.80
1155;DHT22;566;48.414;9.118;2023-02-26T05:44:28;-4.30;93.20
1155;DHT22;566;48.414;9.118;2023-02-26T05:46:54;-4.30;92.80
1155;DHT22;566;48.414;9.118;2023-02-26T05:49:19;-4.20;92.60
1155;DHT22;566;48.414;9.118;2023-02-26T05:51:48;-4.10;93.40
1155;DHT22;566;48.414;9.118;2023-02-26T05:54:14;-4.10;94.30
1155;DHT22;566;48.414;9.118;2023-02-26T05:56:39;-4.10;94.90
1155;DHT22;566;48.414;9.118;2023-02-26T05:59:05;-4.10;94.60
1155;DHT22;566;48.414;9.118;2023-02-26T06:01:31;-3.90;94.20
1155;DHT22;566;48.414;9.118;2023-02-26T06:03:56;-3.80;94.90
1155;DHT22;566;48.414;9.118;2023-02-26T06:06:22;-3.80;95.40
1155;DHT22;566;48.414;9.118;2023-02-26T06:08:47;-3.70;95.20
1155;DHT22;566;48.414;9.118;2023-02-26T06:11:13;-3.60;96.70
1155;DHT22;566;48.414;9.118;2023-02-26T06:13:39;-3.60;97.00
1155;DHT22;566;48.414;9.118;2023-02-26T06:16:05;-3.50;97.30
1155;DHT22;566;48.414;9.118;2023-02-26T06:18:30;-3.50;98.00
1155;DHT22;566;48.414;9.118;2023-02-26T06:20:58;-3.50;97.70
1155;DHT22;566;48.414;9.118;2023-02-26T06:23:24;-3.50;96.80
1155;DHT22;566;48.414;9.118;2023-02-26T06:25:53;-3.60;96.90
1155;DHT22;566;48.414;9.118;2023-02-26T06:28:19;-3.50;95.90
1155;DHT22;566;48.414;9.118;2023-02-26T06:30:45;-3.50;96.10
1155;DHT22;566;48.414;9.118;2023-02-26T06:33:10;-3.50;96.00
1155;DHT22;566;48.414;9.118;2023-02-26T06:35:36;-3.40;96.80
1155;DHT22;566;48.414;9.118;2023-02-26T06:38:02;-3.40;97.60
1155;DHT22;566;48.414;9.118;2023-02-26T06:40:28;-3.40;98.00
1155;DHT22;566;48.414;9.118;2023-02-26T06:42:55;-3.40;98.00
1155;DHT22;566;48.414;9.118;2023-02-26T06:45:21;-3.40;98.00
1155;DHT22;566;48.414;9.118;2023-02-26T06:47:47;-3.30;98.00
1155;DHT22;566;48.414;9.118;2023-02-26T06:50:13;-3.40;98.00
1155;DHT22;566;48.414;9.118;2023-02-26T06:52:39;-3.40;98.00
1155;DHT22;566;48.414;9.118;2023-02-26T06:55:05;-3.40;98.00
1155;DHT22;566;48.414;9.118;2023-02-26T06:57:30;-3.40;98.00
1155;DHT22;566;48.414;9.118;2023-02-26T06:59:56;-3.40;98.00
1155;DHT22;566;48.414;9.118;2023-02-26T07:02:22;-3.30;98.00
1155;DHT22;566;48.414;9.118;2023-02-26T07:04:48;-3.20;97.80
1155;DHT22;566;48.414;9.118;2023-02-26T07:07:14;-3.20;98.00
1155;DHT22;566;48.414;9.118;2023-02-26T07:09:40;-3.10;98.00
1155;DHT22;566;48.414;9.118;2023-02-26T07:12:06;-3.00;98.00
1155;DHT22;566;48.414;9.118;2023-02-26T07:14:33;-3.00;98.00
1155;DHT22;566;48.414;9.118;2023-02-26T07:16:59;-3.00;98.00
1155;DHT22;566;48.414;9.118;2023-02-26T07:19:24;-2.90;98.00
1155;DHT22;566;48.414;9.118;2023-02-26T07:21:50;-2.70;98.00
1155;DHT22;566;48.414;9.118;2023-02-26T07:24:16;-2.60;98.00
1155;DHT22;566;48.414;9.118;2023-02-26T07:26:41;-2.40;98.00
1155;DHT22;566;48.414;9.118;2023-02-26T07:29:09;-2.30;98.00
1155;DHT22;566;48.414;9.118;2023-02-26T07:31:35;-2.20;98.00
1155;DHT22;566;48.414;9.118;2023-02-26T07:34:01;-1.90;98.00
1155;DHT22;566;48.414;9.118;2023-02-26T07:36:27;-1.60;98.00
1155;DHT22;566;48.414;9.118;2023-02-26T07:38:53;-1.40;98.00
1155;DHT22;566;48.414;9.118;2023-02-26T07:41:22;-1.10;98.00
1155;DHT22;566;48.414;9.118;2023-02-26T07:43:47;-1.40;98.00
1155;DHT22;566;48.414;9.118;2023-02-26T07:46:13;-1.80;98.00
1155;DHT22;566;48.414;9.118;2023-02-26T07:48:38;-2.40;98.00
1155;DHT22;566;48.414;9.118;2023-02-26T07:51:05;-2.60;98.00
1155;DHT22;566;48.414;9.118;2023-02-26T07:53:33;-2.70;98.00
1155;DHT22;566;48.414;9.118;2023-02-26T07:55:59;-2.80;98.00
1155;DHT22;566;48.414;9.118;2023-02-26T07:58:25;-2.60;98.00
1155;DHT22;566;48.414;9.118;2023-02-26T08:00:50;-2.60;98.00
1155;DHT22;566;48.414;9.118;2023-02-26T08:03:19;-2.70;98.00
1155;DHT22;566;48.414;9.118;2023-02-26T08:05:44;-2.80;98.00
1155;DHT22;566;48.414;9.118;2023-02-26T08:08:10;-2.60;98.00
1155;DHT22;566;48.414;9.118;2023-02-26T08:10:36;-2.80;98.00
1155;DHT22;566;48.414;9.118;2023-02-26T08:13:03;-2.70;98.00
1155;DHT22;566;48.414;9.118;2023-02-26T08:15:29;-2.70;98.00
1155;DHT22;566;48.414;9.118;2023-02-26T08:17:55;-2.80;98.00
1155;DHT22;566;48.414;9.118;2023-02-26T08:20:21;-2.70;98.00
1155;DHT22;566;48.414;9.118;2023-02-26T08:22:48;-2.70;98.00
1155;DHT22;566;48.414;9.118;2023-02-26T08:25:14;-2.70;98.00
1155;DHT22;566;48.414;9.118;2023-02-26T08:27:43;-2.70;98.00
1155;DHT22;566;48.414;9.118;2023-02-26T08:30:09;-2.80;98.00
1155;DHT22;566;48.414;9.118;2023-02-26T08:32:47;-2.80;98.00
1155;DHT22;566;48.414;9.118;2023-02-26T08:35:23;-2.80;98.00
1155;DHT22;566;48.414;9.118;2023-02-26T08:37:49;-2.70;98.00
1155;DHT22;566;48.414;9.118;2023-02-26T08:40:18;-2.40;98.00
1155;DHT22;566;48.414;9.118;2023-02-26T08:42:47;-2.00;98.00
1155;DHT22;566;48.414;9.118;2023-02-26T08:45:18;-1.90;98.00
1155;DHT22;566;48.414;9.118;2023-02-26T08:47:45;-1.90;98.00
1155;DHT22;566;48.414;9.118;2023-02-26T08:50:11;-1.80;98.00
1155;DHT22;566;48.414;9.118;2023-02-26T08:52:36;-1.90;98.00
1155;DHT22;566;48.414;9.118;2023-02-26T08:55:03;-2.00;98.00
1155;DHT22;566;48.414;9.118;2023-02-26T08:57:29;-1.80;98.00
1155;DHT22;566;48.414;9.118;2023-02-26T08:59:59;-1.60;98.00
1155;DHT22;566;48.414;9.118;2023-02-26T09:02:25;-1.60;98.00
1155;DHT22;566;48.414;9.118;2023-02-26T09:04:50;-1.70;98.00
1155;DHT22;566;48.414;9.118;2023-02-26T09:07:16;-2.00;98.00
1155;DHT22;566;48.414;9.118;2023-02-26T09:09:41;-2.00;98.00
1155;DHT22;566;48.414;9.118;2023-02-26T09:12:07;-1.90;98.00
1155;DHT22;566;48.414;9.118;2023-02-26T09:14:32;-1.80;98.00
1155;DHT22;566;48.414;9.118;2023-02-26T09:16:58;-2.00;98.00
1155;DHT22;566;48.414;9.118;2023-02-26T09:19:24;-2.00;98.00
1155;DHT22;566;48.414;9.118;2023-02-26T09:21:52;-2.20;98.00
1155;DHT22;566;48.414;9.118;2023-02-26T09:24:18;-2.00;98.00
1155;DHT22;566;48.414;9.118;2023-02-26T09:26:43;-1.70;98.00
1155;DHT22;566;48.414;9.118;2023-02-26T09:29:09;-1.50;98.00
1155;DHT22;566;48.414;9.118;2023-02-26T09:31:35;-1.40;98.00
1155;DHT22;566;48.414;9.118;2023-02-26T09:34:01;-1.30;98.00
1155;DHT22;566;48.414;9.118;2023-02-26T09:36:27;-0.60;97.60
1155;DHT22;566;48.414;9.118;2023-02-26T09:38:52;0.40;94.30
1155;DHT22;566;48.414;9.118;2023-02-26T09:41:23;0.70;91.60
1155;DHT22;566;48.414;9.118;2023-02-26T09:44:23;0.60;90.90
1155;DHT22;566;48.414;9.118;2023-02-26T09:46:51;0.20;90.00
1155;DHT22;566;48.414;9.118;2023-02-26T09:51:52;-0.60;91.80
1155;DHT22;566;48.414;9.118;2023-02-26T09:54:22;-0.60;93.80
1155;DHT22;566;48.414;9.118;2023-02-26T09:56:51;-0.50;93.40
1155;DHT22;566;48.414;9.118;2023-02-26T09:59:17;-0.50;91.80
1155;DHT22;566;48.414;9.118;2023-02-26T10:01:59;-0.20;92.50
1155;DHT22;566;48.414;9.118;2023-02-26T10:07:32;0.20;88.80
1155;DHT22;566;48.414;9.118;2023-02-26T10:12:42;0.10;90.00
1155;DHT22;566;48.414;9.118;2023-02-26T10:15:30;0.00;90.30
1155;DHT22;566;48.414;9.118;2023-02-26T10:28:50;1.90;86.70
1155;DHT22;566;48.414;9.118;2023-02-26T10:34:24;2.20;83.40
1155;DHT22;566;48.414;9.118;2023-02-26T10:37:01;1.30;86.00
1155;DHT22;566;48.414;9.118;2023-02-26T10:39:51;0.60;87.30
1155;DHT22;566;48.414;9.118;2023-02-26T10:42:29;0.60;89.20
1155;DHT22;566;48.414;9.118;2023-02-26T10:50:17;0.80;89.30
1155;DHT22;566;48.414;9.118;2023-02-26T10:52:44;0.80;90.20
1155;DHT22;566;48.414;9.118;2023-02-26T10:55:38;0.40;88.70
1155;DHT22;566;48.414;9.118;2023-02-26T10:58:22;0.00;91.30
1155;DHT22;566;48.414;9.118;2023-02-26T11:00:52;0.30;91.70
1155;DHT22;566;48.414;9.118;2023-02-26T11:03:38;0.70;90.10
1155;DHT22;566;48.414;9.118;2023-02-26T11:06:05;0.90;89.90
1155;DHT22;566;48.414;9.118;2023-02-26T11:08:44;0.60;90.30
1155;DHT22;566;48.414;9.118;2023-02-26T11:14:16;-0.60;93.00
1155;DHT22;566;48.414;9.118;2023-02-26T11:16:55;-0.70;94.00
1155;DHT22;566;48.414;9.118;2023-02-26T11:19:28;-0.80;94.30
1155;DHT22;566;48.414;9.118;2023-02-26T11:21:58;-0.90;95.40
1155;DHT22;566;48.414;9.118;2023-02-26T11:24:37;-0.90;95.90
1155;DHT22;566;48.414;9.118;2023-02-26T11:27:10;-0.90;95.10
1155;DHT22;566;48.414;9.118;2023-02-26T11:29:39;-0.80;95.70
1155;DHT22;566;48.414;9.118;2023-02-26T11:32:22;-0.70;95.70
1155;DHT22;566;48.414;9.118;2023-02-26T11:34:50;-0.60;95.30
1155;DHT22;566;48.414;9.118;2023-02-26T11:37:22;-0.40;95.50
1155;DHT22;566;48.414;9.118;2023-02-26T11:39:57;-0.30;94.40
1155;DHT22;566;48.414;9.118;2023-02-26T11:42:25;-0.40;94.20
1155;DHT22;566;48.414;9.118;2023-02-26T11:44:55;-0.30;94.80
1155;DHT22;566;48.414;9.118;2023-02-26T11:47:28;0.00;95.50
1155;DHT22;566;48.414;9.118;2023-02-26T11:49:59;0.10;94.00
1155;DHT22;566;48.414;9.118;2023-02-26T11:52:35;0.10;93.60
1155;DHT22;566;48.414;9.118;2023-02-26T11:55:20;0.10;93.50
1155;DHT22;566;48.414;9.118;2023-02-26T11:57:52;-0.20;94.20
1155;DHT22;566;48.414;9.118;2023-02-26T12:00:32;-0.40;94.80
1155;DHT22;566;48.414;9.118;2023-02-26T12:03:05;-0.50;95.30
1155;DHT22;566;48.414;9.118;2023-02-26T12:05:33;-0.50;95.40
1155;DHT22;566;48.414;9.118;2023-02-26T12:08:01;-0.30;96.50
1155;DHT22;566;48.414;9.118;2023-02-26T12:10:39;-0.20;95.90
1155;DHT22;566;48.414;9.118;2023-02-26T12:13:23;-0.20;95.10
1155;DHT22;566;48.414;9.118;2023-02-26T12:19:20;0.00;93.40
1155;DHT22;566;48.414;9.118;2023-02-26T12:27:39;-0.40;95.60
1155;DHT22;566;48.414;9.118;2023-02-26T12:33:00;-0.40;96.20
1155;DHT22;566;48.414;9.118;2023-02-26T12:35:35;-0.50;95.70
1155;DHT22;566;48.414;9.118;2023-02-26T12:38:09;-0.60;97.00
1155;DHT22;566;48.414;9.118;2023-02-26T12:41:02;-0.60;97.70
1155;DHT22;566;48.414;9.118;2023-02-26T12:43:47;-0.60;97.70
1155;DHT22;566;48.414;9.118;2023-02-26T13:08:45;0.90;98.00
1155;DHT22;566;48.414;9.118;2023-02-26T13:11:42;1.30;97.40
1155;DHT22;566;48.414;9.118;2023-02-26T13:19:42;1.20;94.00
1155;DHT22;566;48.414;9.118;2023-02-26T13:25:04;0.90;95.00
1155;DHT22;566;48.414;9.118;2023-02-26T13:27:36;0.50;96.00
1155;DHT22;566;48.414;9.118;2023-02-26T13:30:25;0.50;96.70
1155;DHT22;566;48.414;9.118;2023-02-26T13:32:56;0.40;97.20
1155;DHT22;566;48.414;9.118;2023-02-26T13:35:37;0.50;97.30
1155;DHT22;566;48.414;9.118;2023-02-26T13:46:24;0.90;95.40
1155;DHT22;566;48.414;9.118;2023-02-26T13:51:49;0.50;96.20
1155;DHT22;566;48.414;9.118;2023-02-26T13:57:23;0.10;97.70
1155;DHT22;566;48.414;9.118;2023-02-26T14:02:47;-0.20;97.90
1155;DHT22;566;48.414;9.118;2023-02-26T14:13:20;-0.10;98.00
1155;DHT22;566;48.414;9.118;2023-02-26T14:15:57;-0.20;98.00
1155;DHT22;566;48.414;9.118;2023-02-26T14:19:04;-0.40;98.00
1155;DHT22;566;48.414;9.118;2023-02-26T14:21:34;-0.80;98.00
1155;DHT22;566;48.414;9.118;2023-02-26T14:24:31;-0.80;98.00
1155;DHT22;566;48.414;9.118;2023-02-26T14:29:43;0.00;98.00
1155;DHT22;566;48.414;9.118;2023-02-26T14:35:18;0.60;98.00
1155;DHT22;566;48.414;9.118;2023-02-26T14:38:17;0.50;98.00
1155;DHT22;566;48.414;9.118;2023-02-26T14:41:00;0.70;98.00
1155;DHT22;566;48.414;9.118;2023-02-26T14:44:29;1.10;97.60
1155;DHT22;566;48.414;9.118;2023-02-26T14:46:33;1.10;95.90
1155;DHT22;566;48.414;9.118;2023-02-26T14:49:25;1.10;95.30
1155;DHT22;566;48.414;9.118;2023-02-26T14:55:37;3.20;90.40
1155;DHT22;566;48.414;9.118;2023-02-26T15:01:12;4.90;83.10
1155;DHT22;566;48.414;9.118;2023-02-26T15:11:50;1.90;86.40
1155;DHT22;566;48.414;9.118;2023-02-26T15:20:14;0.30;93.40
1155;DHT22;566;48.414;9.118;2023-02-26T15:25:32;-0.30;95.20
1155;DHT22;566;48.414;9.118;2023-02-26T15:28:05;-0.40;96.00
1155;DHT22;566;48.414;9.118;2023-02-26T15:30:36;0.30;95.20
1155;DHT22;566;48.414;9.118;2023-02-26T15:33:12;1.10;91.70
1155;DHT22;566;48.414;9.118;2023-02-26T15:35:43;1.60;89.70
1155;DHT22;566;48.414;9.118;2023-02-26T15:38:11;2.60;87.30
1155;DHT22;566;48.414;9.118;2023-02-26T15:40:38;3.40;84.50
1155;DHT22;566;48.414;9.118;2023-02-26T15:43:07;3.50;83.00
1155;DHT22;566;48.414;9.118;2023-02-26T15:45:45;2.70;83.10
1155;DHT22;566;48.414;9.118;2023-02-26T15:50:53;4.80;80.60
1155;DHT22;566;48.414;9.118;2023-02-26T15:53:37;4.20;79.10
1155;DHT22;566;48.414;9.118;2023-02-26T15:56:14;3.40;79.50
1155;DHT22;566;48.414;9.118;2023-02-26T15:59:10;2.30;83.70
1155;DHT22;566;48.414;9.118;2023-02-26T16:01:40;1.00;88.40
1155;DHT22;566;48.414;9.118;2023-02-26T16:04:13;0.30;91.90
1155;DHT22;566;48.414;9.118;2023-02-26T16:06:46;-0.10;94.70
1155;DHT22;566;48.414;9.118;2023-02-26T16:09:29;-0.50;95.70
1155;DHT22;566;48.414;9.118;2023-02-26T16:11:59;-0.60;96.60
1155;DHT22;566;48.414;9.118;2023-02-26T16:14:32;-0.40;96.90
1155;DHT22;566;48.414;9.118;2023-02-26T16:17:02;-0.20;96.60
1155;DHT22;566;48.414;9.118;2023-02-26T16:19:35;0.20;95.90
1155;DHT22;566;48.414;9.118;2023-02-26T16:22:11;0.80;93.80
1155;DHT22;566;48.414;9.118;2023-02-26T16:24:43;0.80;92.30
1155;DHT22;566;48.414;9.118;2023-02-26T16:27:12;0.40;92.70
1155;DHT22;566;48.414;9.118;2023-02-26T16:29:49;-0.10;93.30
1155;DHT22;566;48.414;9.118;2023-02-26T16:32:18;-0.50;94.50
1155;DHT22;566;48.414;9.118;2023-02-26T16:34:53;-0.80;96.00
1155;DHT22;566;48.414;9.118;2023-02-26T16:45:41;-1.60;98.00
1155;DHT22;566;48.414;9.118;2023-02-26T16:48:26;-1.60;98.00
1155;DHT22;566;48.414;9.118;2023-02-26T16:50:58;-1.70;98.00
1155;DHT22;566;48.414;9.118;2023-02-26T16:53:39;-1.60;98.00
1155;DHT22;566;48.414;9.118;2023-02-26T16:56:12;-1.70;98.00
1155;DHT22;566;48.414;9.118;2023-02-26T16:58:48;-1.70;98.00
1155;DHT22;566;48.414;9.118;2023-02-26T17:01:20;-1.80;98.00
1155;DHT22;566;48.414;9.118;2023-02-26T17:03:51;-1.80;98.00
1155;DHT22;566;48.414;9.118;2023-02-26T17:06:23;-1.70;98.00
1155;DHT22;566;48.414;9.118;2023-02-26T17:08:56;-1.70;98.00
1155;DHT22;566;48.414;9.118;2023-02-26T17:11:39;-1.60;98.00
1155;DHT22;566;48.414;9.118;2023-02-26T17:14:24;-1.70;98.00
1155;DHT22;566;48.414;9.118;2023-02-26T17:16:51;-1.70;97.60
1155;DHT22;566;48.414;9.118;2023-02-26T17:19:18;-1.70;98.00
1155;DHT22;566;48.414;9.118;2023-02-26T17:21:52;-1.60;98.00
1155;DHT22;566;48.414;9.118;2023-02-26T17:24:33;-1.60;97.80
1155;DHT22;566;48.414;9.118;2023-02-26T17:27:03;-1.50;97.80
1155;DHT22;566;48.414;9.118;2023-02-26T17:29:33;-1.50;98.00
1155;DHT22;566;48.414;9.118;2023-02-26T17:32:05;-1.60;98.00
1155;DHT22;566;48.414;9.118;2023-02-26T17:34:33;-1.70;98.00
1155;DHT22;566;48.414;9.118;2023-02-26T17:36:59;-1.70;98.00
1155;DHT22;566;48.414;9.118;2023-02-26T17:39:30;-1.80;98.00
1155;DHT22;566;48.414;9.118;2023-02-26T17:41:56;-1.80;98.00
1155;DHT22;566;48.414;9.118;2023-02-26T17:44:23;-1.90;98.00
1155;DHT22;566;48.414;9.118;2023-02-26T17:46:49;-1.80;98.00
1155;DHT22;566;48.414;9.118;2023-02-26T17:49:15;-1.90;98.00
1155;DHT22;566;48.414;9.118;2023-02-26T17:51:44;-1.80;97.60
1155;DHT22;566;48.414;9.118;2023-02-26T17:54:10;-1.80;97.90
1155;DHT22;566;48.414;9.118;2023-02-26T17:56:37;-1.70;97.60
1155;DHT22;566;48.414;9.118;2023-02-26T17:59:05;-1.60;96.90
1155;DHT22;566;48.414;9.118;2023-02-26T18:01:32;-1.70;96.90
1155;DHT22;566;48.414;9.118;2023-02-26T18:03:59;-1.70;95.90
1155;DHT22;566;48.414;9.118;2023-02-26T18:06:32;-1.70;96.50
1155;DHT22;566;48.414;9.118;2023-02-26T18:08:59;-1.70;96.10
1155;DHT22;566;48.414;9.118;2023-02-26T18:11:26;-1.70;96.80
1155;DHT22;566;48.414;9.118;2023-02-26T18:13:53;-1.70;96.00
1155;DHT22;566;48.414;9.118;2023-02-26T18:16:22;-1.80;95.90
1155;DHT22;566;48.414;9.118;2023-02-26T18:18:52;-1.80;96.30
1155;DHT22;566;48.414;9.118;2023-02-26T18:21:20;-1.80;96.60
1155;DHT22;566;48.414;9.118;2023-02-26T18:23:46;-1.80;96.30
1155;DHT22;566;48.414;9.118;2023-02-26T18:26:17;-1.70;95.90
1155;DHT22;566;48.414;9.118;2023-02-26T18:28:48;-1.70;95.70
1155;DHT22;566;48.414;9.118;2023-02-26T18:31:17;-1.60;96.10
1155;DHT22;566;48.414;9.118;2023-02-26T18:33:45;-1.70;96.00
1155;DHT22;566;48.414;9.118;2023-02-26T18:36:23;-1.70;94.80
1155;DHT22;566;48.414;9.118;2023-02-26T18:38:55;-1.70;95.10
1155;DHT22;566;48.414;9.118;2023-02-26T18:41:30;-1.70;95.30
1155;DHT22;566;48.414;9.118;2023-02-26T18:43:58;-1.80;95.70
1155;DHT22;566;48.414;9.118;2023-02-26T18:46:25;-1.70;95.50
1155;DHT22;566;48.414;9.118;2023-02-26T18:48:53;-1.70;94.90
1155;DHT22;566;48.414;9.118;2023-02-26T18:51:20;-1.70;94.90
1155;DHT22;566;48.414;9.118;2023-02-26T18:53:46;-1.70;95.00
1155;DHT22;566;48.414;9.118;2023-02-26T18:56:12;-1.70;94.50
1155;DHT22;566;48.414;9.118;2023-02-26T18:58:39;-1.70;94.50
1155;DHT22;566;48.414;9.118;2023-02-26T19:01:05;-1.70;95.10
1155;DHT22;566;48.414;9.118;2023-02-26T19:03:31;-1.70;95.50
1155;DHT22;566;48.414;9.118;2023-02-26T19:06:01;-1.70;95.70
1155;DHT22;566;48.414;9.118;2023-02-26T19:08:28;-1.80;95.90
1155;DHT22;566;48.414;9.118;2023-02-26T19:10:56;-1.80;95.80
1155;DHT22;566;48.414;9.118;2023-02-26T19:13:24;-1.80;96.00
1155;DHT22;566;48.414;9.118;2023-02-26T19:15:51;-1.80;96.20
1155;DHT22;566;48.414;9.118;2023-02-26T19:18:18;-1.80;96.40
1155;DHT22;566;48.414;9.118;2023-02-26T19:20:45;-1.80;96.90
1155;DHT22;566;48.414;9.118;2023-02-26T19:23:12;-1.90;97.00
1155;DHT22;566;48.414;9.118;2023-02-26T19:25:38;-2.00;97.30
1155;DHT22;566;48.414;9.118;2023-02-26T19:28:05;-1.90;97.30
1155;DHT22;566;48.414;9.118;2023-02-26T19:30:32;-2.00;97.90
1155;DHT22;566;48.414;9.118;2023-02-26T19:33:00;-2.00;97.50
1155;DHT22;566;48.414;9.118;2023-02-26T19:35:28;-2.00;97.70
1155;DHT22;566;48.414;9.118;2023-02-26T19:37:56;-2.10;97.80
1155;DHT22;566;48.414;9.118;2023-02-26T19:40:22;-2.10;98.00
1155;DHT22;566;48.414;9.118;2023-02-26T19:42:49;-2.10;98.00
1155;DHT22;566;48.414;9.118;2023-02-26T19:45:16;-2.10;98.00
1155;DHT22;566;48.414;9.118;2023-02-26T19:47:43;-2.10;98.00
1155;DHT22;566;48.414;9.118;2023-02-26T19:50:12;-2.00;98.00